Thursday, August 24, 2017, 12:02 AM CDT
Back to Local

KBTR, Baton Rouge Metro Ryan Field

Location: Baton Rouge, LA, United States Lat: 30.533
Local Time: 12:02 AM CDT ( 5:02 GMT) Lon: -91.15
Time Zone: US/Central Elev: 68 ft

Show me the last for .
Show Decoded

2017-08-23 22:53 METAR KBTR 240353Z 02003KT 10SM CLR 26/24 A2991 RMK AO2 SLP127 T02610239 =
2017-08-23 21:53 METAR KBTR 240253Z 03003KT 10SM CLR 27/24 A2990 RMK AO2 SLP123 T02670244 53009 =
2017-08-23 20:53 METAR KBTR 240153Z 00000KT 10SM CLR 28/24 A2989 RMK AO2 SLP118 T02780244 =
2017-08-23 19:53 METAR KBTR 240053Z 00000KT 10SM CLR 29/23 A2988 RMK AO2 LTG DSNT N SLP117
                 T02890233 =
2017-08-23 18:53 METAR KBTR 232353Z COR 00000KT 10SM FEW034 31/22 A2987 RMK AO2 LTG DSNT N AND NE
                 SLP115 T03110217 10339 20311 55005 =
2017-08-23 17:53 METAR KBTR 232253Z 11005KT 10SM FEW032 32/23 A2987 RMK AO2 LTG DSNT NE SLP113
                 T03170228 =
2017-08-23 16:53 METAR KBTR 232153Z 11007KT 10SM CLR 33/21 A2987 RMK AO2 SLP113 T03330211 =
2017-08-23 15:53 METAR KBTR 232053Z 12005KT 10SM SCT041 32/23 A2989 RMK AO2 SLP118 T03170228
                 58023 =
2017-08-23 14:53 METAR KBTR 231953Z VRB03KT 10SM SCT041 SCT060 33/22 A2991 RMK AO2 SLP126
                 T03280217 =
2017-08-23 13:53 METAR KBTR 231853Z COR VRB06KT 10SM SCT037 32/22 A2994 RMK AO2 SLP135 T03220217
                 =
2017-08-23 12:53 METAR KBTR 231753Z 01006KT 10SM SCT035 33/22 A2996 RMK AO2 SLP142 T03280222
                 10328 20222 58014 =
2017-08-23 11:53 METAR KBTR 231653Z COR 04003KT 10SM SCT032 31/22 A2998 RMK AO2 SLP151 T03060217
                 =
2017-08-23 10:53 METAR KBTR 231553Z 36004KT 10SM CLR 30/22 A3000 RMK AO2 SLP156 T03000222 =
2017-08-23 09:53 METAR KBTR 231453Z 34005KT 10SM CLR 29/23 A3000 RMK AO2 SLP157 T02890228 50002 =
2017-08-23 08:53 METAR KBTR 231353Z 01003KT 10SM CLR 27/23 A3000 RMK AO2 SLP157 T02670228 =
2017-08-23 07:53 METAR KBTR 231253Z 04003KT 8SM CLR 24/22 A2999 RMK AO2 SLP155 T02390222 =
2017-08-23 06:53 METAR KBTR 231153Z 00000KT 8SM CLR 22/22 A2999 RMK AO2 SLP154 70043 T02220217
                 10228 20217 55002 =
2017-08-23 05:53 METAR KBTR 231053Z COR 00000KT 10SM CLR 22/22 A2998 RMK AO2 SLP152 T02220217 =
2017-08-23 04:53 METAR KBTR 230953Z AUTO 00000KT 8SM CLR 22/22 A2999 RMK AO2 SLP153 T02220217 =
2017-08-23 03:53 METAR KBTR 230853Z AUTO 00000KT 8SM CLR 22/22 A3000 RMK AO2 SLP157 T02220217
                 58007 =
2017-08-23 02:53 METAR KBTR 230753Z AUTO 00000KT 10SM CLR 23/22 A3000 RMK AO2 SLP157 T02280217 =
2017-08-23 01:53 METAR KBTR 230653Z AUTO 05003KT 10SM CLR 23/22 A3002 RMK AO2 SLP163 T02280217 =
2017-08-23 00:53 METAR KBTR 230553Z AUTO 00000KT 10SM CLR 23/22 A3002 RMK AO2 SLP163 T02280222
                 10244 20228 403390228 53007 =

Support USWX by starting your Amazon purchase here.